sensor_id;sensor_type;location;lat;lon;timestamp;temperature;humidity
7216;DHT22;3649;48.798;9.798;2023-04-25T00:01:51;13.40;99.90
7216;DHT22;3649;48.798;9.798;2023-04-25T00:04:19;13.60;99.90
7216;DHT22;3649;48.798;9.798;2023-04-25T00:06:48;13.50;99.90
7216;DHT22;3649;48.798;9.798;2023-04-25T00:09:15;13.40;99.90
7216;DHT22;3649;48.798;9.798;2023-04-25T00:11:42;13.40;99.90
7216;DHT22;3649;48.798;9.798;2023-04-25T00:14:09;13.40;99.90
7216;DHT22;3649;48.798;9.798;2023-04-25T00:16:36;13.40;99.90
7216;DHT22;3649;48.798;9.798;2023-04-25T00:19:03;13.30;99.90
7216;DHT22;3649;48.798;9.798;2023-04-25T00:21:30;13.40;99.90
7216;DHT22;3649;48.798;9.798;2023-04-25T00:23:58;13.40;99.90
7216;DHT22;3649;48.798;9.798;2023-04-25T00:26:25;13.30;99.90
7216;DHT22;3649;48.798;9.798;2023-04-25T00:28:52;13.40;99.90
7216;DHT22;3649;48.798;9.798;2023-04-25T00:31:19;13.50;99.90
7216;DHT22;3649;48.798;9.798;2023-04-25T00:33:46;13.40;99.90
7216;DHT22;3649;48.798;9.798;2023-04-25T00:36:13;13.50;99.90
7216;DHT22;3649;48.798;9.798;2023-04-25T00:38:41;13.40;99.90
7216;DHT22;3649;48.798;9.798;2023-04-25T00:41:08;13.30;99.90
7216;DHT22;3649;48.798;9.798;2023-04-25T00:43:36;13.30;99.90
7216;DHT22;3649;48.798;9.798;2023-04-25T00:46:04;13.30;99.90
7216;DHT22;3649;48.798;9.798;2023-04-25T00:48:30;13.30;99.90
7216;DHT22;3649;48.798;9.798;2023-04-25T00:50:58;13.30;99.90
7216;DHT22;3649;48.798;9.798;2023-04-25T00:53:27;13.40;99.90
7216;DHT22;3649;48.798;9.798;2023-04-25T00:55:55;13.40;99.90
7216;DHT22;3649;48.798;9.798;2023-04-25T00:58:22;13.30;99.90
7216;DHT22;3649;48.798;9.798;2023-04-25T01:00:50;13.30;99.90
7216;DHT22;3649;48.798;9.798;2023-04-25T01:03:19;13.30;99.90
7216;DHT22;3649;48.798;9.798;2023-04-25T01:05:50;13.30;99.90
7216;DHT22;3649;48.798;9.798;2023-04-25T01:08:17;13.30;99.90
7216;DHT22;3649;48.798;9.798;2023-04-25T01:10:44;13.30;99.90
7216;DHT22;3649;48.798;9.798;2023-04-25T01:13:10;13.20;99.90
7216;DHT22;3649;48.798;9.798;2023-04-25T01:15:37;13.30;99.90
7216;DHT22;3649;48.798;9.798;2023-04-25T01:18:05;13.40;99.90
7216;DHT22;3649;48.798;9.798;2023-04-25T01:20:33;13.40;99.90
7216;DHT22;3649;48.798;9.798;2023-04-25T01:23:01;13.30;99.90
7216;DHT22;3649;48.798;9.798;2023-04-25T01:25:32;13.30;99.90
7216;DHT22;3649;48.798;9.798;2023-04-25T01:27:59;13.30;99.90
7216;DHT22;3649;48.798;9.798;2023-04-25T01:30:27;13.30;99.90
7216;DHT22;3649;48.798;9.798;2023-04-25T01:32:55;13.40;99.90
7216;DHT22;3649;48.798;9.798;2023-04-25T01:35:23;13.20;99.90
7216;DHT22;3649;48.798;9.798;2023-04-25T01:37:51;13.30;99.90
7216;DHT22;3649;48.798;9.798;2023-04-25T01:40:18;13.30;99.90
7216;DHT22;3649;48.798;9.798;2023-04-25T01:42:46;13.30;99.90
7216;DHT22;3649;48.798;9.798;2023-04-25T01:45:14;13.20;99.90
7216;DHT22;3649;48.798;9.798;2023-04-25T01:47:40;13.20;99.90
7216;DHT22;3649;48.798;9.798;2023-04-25T01:50:10;13.30;99.90
7216;DHT22;3649;48.798;9.798;2023-04-25T01:52:37;13.30;99.90
7216;DHT22;3649;48.798;9.798;2023-04-25T01:55:05;13.20;99.90
7216;DHT22;3649;48.798;9.798;2023-04-25T01:57:40;13.20;99.90
7216;DHT22;3649;48.798;9.798;2023-04-25T02:00:08;13.20;99.90
7216;DHT22;3649;48.798;9.798;2023-04-25T02:02:35;13.30;99.90
7216;DHT22;3649;48.798;9.798;2023-04-25T02:05:03;13.30;99.90
7216;DHT22;3649;48.798;9.798;2023-04-25T02:07:30;13.20;99.90
7216;DHT22;3649;48.798;9.798;2023-04-25T02:09:57;13.10;99.90
7216;DHT22;3649;48.798;9.798;2023-04-25T02:12:23;13.10;99.90
7216;DHT22;3649;48.798;9.798;2023-04-25T02:14:52;13.10;99.90
7216;DHT22;3649;48.798;9.798;2023-04-25T02:17:19;13.00;99.90
7216;DHT22;3649;48.798;9.798;2023-04-25T02:19:47;13.00;99.90
7216;DHT22;3649;48.798;9.798;2023-04-25T02:22:14;12.90;99.90
7216;DHT22;3649;48.798;9.798;2023-04-25T02:24:41;13.00;99.90
7216;DHT22;3649;48.798;9.798;2023-04-25T02:27:08;12.90;99.90
7216;DHT22;3649;48.798;9.798;2023-04-25T02:29:35;13.00;99.90
7216;DHT22;3649;48.798;9.798;2023-04-25T02:32:02;13.00;99.90
7216;DHT22;3649;48.798;9.798;2023-04-25T02:34:29;13.00;99.90
7216;DHT22;3649;48.798;9.798;2023-04-25T02:36:56;13.00;99.90
7216;DHT22;3649;48.798;9.798;2023-04-25T02:39:23;13.00;99.90
7216;DHT22;3649;48.798;9.798;2023-04-25T02:41:52;13.00;99.90
7216;DHT22;3649;48.798;9.798;2023-04-25T02:44:19;13.00;99.90
7216;DHT22;3649;48.798;9.798;2023-04-25T02:46:46;13.00;99.90
7216;DHT22;3649;48.798;9.798;2023-04-25T02:49:13;12.90;99.90
7216;DHT22;3649;48.798;9.798;2023-04-25T02:51:40;12.90;99.90
7216;DHT22;3649;48.798;9.798;2023-04-25T02:54:07;13.00;99.90
7216;DHT22;3649;48.798;9.798;2023-04-25T02:56:34;13.00;99.90
7216;DHT22;3649;48.798;9.798;2023-04-25T02:59:01;13.00;99.90
7216;DHT22;3649;48.798;9.798;2023-04-25T03:01:27;13.00;99.90
7216;DHT22;3649;48.798;9.798;2023-04-25T03:03:54;13.00;99.90
7216;DHT22;3649;48.798;9.798;2023-04-25T03:06:21;12.90;99.90
7216;DHT22;3649;48.798;9.798;2023-04-25T03:08:48;12.90;99.90
7216;DHT22;3649;48.798;9.798;2023-04-25T03:11:15;12.90;99.90
7216;DHT22;3649;48.798;9.798;2023-04-25T03:13:42;12.90;99.90
7216;DHT22;3649;48.798;9.798;2023-04-25T03:16:08;12.80;99.90
7216;DHT22;3649;48.798;9.798;2023-04-25T03:18:35;12.90;99.90
7216;DHT22;3649;48.798;9.798;2023-04-25T03:21:02;12.90;99.90
7216;DHT22;3649;48.798;9.798;2023-04-25T03:23:29;12.90;99.90
7216;DHT22;3649;48.798;9.798;2023-04-25T03:25:56;12.80;99.90
7216;DHT22;3649;48.798;9.798;2023-04-25T03:28:23;12.90;99.90
7216;DHT22;3649;48.798;9.798;2023-04-25T03:30:50;12.80;99.90
7216;DHT22;3649;48.798;9.798;2023-04-25T03:33:17;12.80;99.90
7216;DHT22;3649;48.798;9.798;2023-04-25T03:35:44;12.80;99.90
7216;DHT22;3649;48.798;9.798;2023-04-25T03:38:11;12.80;99.90
7216;DHT22;3649;48.798;9.798;2023-04-25T03:40:38;12.80;99.90
7216;DHT22;3649;48.798;9.798;2023-04-25T03:43:04;12.80;99.90
7216;DHT22;3649;48.798;9.798;2023-04-25T03:45:31;12.80;99.90
7216;DHT22;3649;48.798;9.798;2023-04-25T03:47:58;12.80;99.90
7216;DHT22;3649;48.798;9.798;2023-04-25T03:50:25;12.80;99.90
7216;DHT22;3649;48.798;9.798;2023-04-25T03:52:52;12.90;99.90
7216;DHT22;3649;48.798;9.798;2023-04-25T03:55:19;12.80;99.90
7216;DHT22;3649;48.798;9.798;2023-04-25T03:57:46;12.80;99.90
7216;DHT22;3649;48.798;9.798;2023-04-25T04:00:13;12.80;99.90
7216;DHT22;3649;48.798;9.798;2023-04-25T04:02:40;12.80;99.90
7216;DHT22;3649;48.798;9.798;2023-04-25T04:05:10;12.70;99.90
7216;DHT22;3649;48.798;9.798;2023-04-25T04:07:37;12.90;99.90
7216;DHT22;3649;48.798;9.798;2023-04-25T04:10:07;12.90;99.90
7216;DHT22;3649;48.798;9.798;2023-04-25T04:12:34;12.80;99.90
7216;DHT22;3649;48.798;9.798;2023-04-25T04:15:03;12.90;99.90
7216;DHT22;3649;48.798;9.798;2023-04-25T04:17:33;12.90;99.90
7216;DHT22;3649;48.798;9.798;2023-04-25T04:20:00;12.80;99.90
7216;DHT22;3649;48.798;9.798;2023-04-25T04:22:27;13.00;99.90
7216;DHT22;3649;48.798;9.798;2023-04-25T04:24:54;13.00;99.90
7216;DHT22;3649;48.798;9.798;2023-04-25T04:27:22;13.00;99.90
7216;DHT22;3649;48.798;9.798;2023-04-25T04:29:49;13.00;99.90
7216;DHT22;3649;48.798;9.798;2023-04-25T04:32:18;13.10;99.90
7216;DHT22;3649;48.798;9.798;2023-04-25T04:34:45;13.10;99.90
7216;DHT22;3649;48.798;9.798;2023-04-25T04:37:14;13.00;99.90
7216;DHT22;3649;48.798;9.798;2023-04-25T04:39:41;13.00;99.90
7216;DHT22;3649;48.798;9.798;2023-04-25T04:42:08;12.90;99.90
7216;DHT22;3649;48.798;9.798;2023-04-25T04:44:35;12.90;99.90
7216;DHT22;3649;48.798;9.798;2023-04-25T04:47:02;12.90;99.90
7216;DHT22;3649;48.798;9.798;2023-04-25T04:49:33;12.90;99.90
7216;DHT22;3649;48.798;9.798;2023-04-25T04:52:00;12.80;99.90
7216;DHT22;3649;48.798;9.798;2023-04-25T04:54:27;12.90;99.90
7216;DHT22;3649;48.798;9.798;2023-04-25T04:56:54;12.90;99.90
7216;DHT22;3649;48.798;9.798;2023-04-25T04:59:21;12.90;99.90
7216;DHT22;3649;48.798;9.798;2023-04-25T05:01:48;12.90;99.90
7216;DHT22;3649;48.798;9.798;2023-04-25T05:04:15;12.90;99.90
7216;DHT22;3649;48.798;9.798;2023-04-25T05:06:43;12.90;99.90
7216;DHT22;3649;48.798;9.798;2023-04-25T05:09:14;12.90;99.90
7216;DHT22;3649;48.798;9.798;2023-04-25T05:11:41;12.90;99.90
7216;DHT22;3649;48.798;9.798;2023-04-25T05:14:08;13.00;99.90
7216;DHT22;3649;48.798;9.798;2023-04-25T05:16:35;13.00;99.90
7216;DHT22;3649;48.798;9.798;2023-04-25T05:19:02;13.10;99.90
7216;DHT22;3649;48.798;9.798;2023-04-25T05:21:28;13.20;99.90
7216;DHT22;3649;48.798;9.798;2023-04-25T05:23:55;13.10;99.90
7216;DHT22;3649;48.798;9.798;2023-04-25T05:26:22;13.00;99.90
7216;DHT22;3649;48.798;9.798;2023-04-25T05:28:49;13.00;99.90
7216;DHT22;3649;48.798;9.798;2023-04-25T05:31:17;12.90;99.90
7216;DHT22;3649;48.798;9.798;2023-04-25T05:33:44;13.10;99.90
7216;DHT22;3649;48.798;9.798;2023-04-25T05:36:11;13.10;99.90
7216;DHT22;3649;48.798;9.798;2023-04-25T05:38:38;13.10;99.90
7216;DHT22;3649;48.798;9.798;2023-04-25T05:41:05;13.10;99.90
7216;DHT22;3649;48.798;9.798;2023-04-25T05:43:32;13.10;99.90
7216;DHT22;3649;48.798;9.798;2023-04-25T05:45:59;13.00;99.90
7216;DHT22;3649;48.798;9.798;2023-04-25T05:48:26;13.30;99.90
7216;DHT22;3649;48.798;9.798;2023-04-25T05:50:53;13.00;99.90
7216;DHT22;3649;48.798;9.798;2023-04-25T05:53:20;13.00;99.90
7216;DHT22;3649;48.798;9.798;2023-04-25T05:55:48;13.00;99.90
7216;DHT22;3649;48.798;9.798;2023-04-25T05:58:15;13.00;99.90
7216;DHT22;3649;48.798;9.798;2023-04-25T06:00:42;13.00;99.90
7216;DHT22;3649;48.798;9.798;2023-04-25T06:03:08;13.10;99.90
7216;DHT22;3649;48.798;9.798;2023-04-25T06:05:43;13.10;99.90
7216;DHT22;3649;48.798;9.798;2023-04-25T06:08:10;13.10;99.90
7216;DHT22;3649;48.798;9.798;2023-04-25T06:10:37;13.20;99.90
7216;DHT22;3649;48.798;9.798;2023-04-25T06:13:05;13.20;99.90
7216;DHT22;3649;48.798;9.798;2023-04-25T06:15:32;13.10;99.90
7216;DHT22;3649;48.798;9.798;2023-04-25T06:17:59;13.30;99.90
7216;DHT22;3649;48.798;9.798;2023-04-25T06:20:26;13.30;99.90
7216;DHT22;3649;48.798;9.798;2023-04-25T06:22:53;13.30;99.90
7216;DHT22;3649;48.798;9.798;2023-04-25T06:25:20;13.40;99.90
7216;DHT22;3649;48.798;9.798;2023-04-25T06:27:47;13.40;99.90
7216;DHT22;3649;48.798;9.798;2023-04-25T06:30:14;13.50;99.90
7216;DHT22;3649;48.798;9.798;2023-04-25T06:32:43;13.40;99.90
7216;DHT22;3649;48.798;9.798;2023-04-25T06:35:09;13.40;99.90
7216;DHT22;3649;48.798;9.798;2023-04-25T06:37:37;13.60;99.90
7216;DHT22;3649;48.798;9.798;2023-04-25T06:40:04;13.50;99.90
7216;DHT22;3649;48.798;9.798;2023-04-25T06:42:31;13.50;99.90
7216;DHT22;3649;48.798;9.798;2023-04-25T06:44:58;13.60;99.90
7216;DHT22;3649;48.798;9.798;2023-04-25T06:47:25;13.60;99.90
7216;DHT22;3649;48.798;9.798;2023-04-25T06:49:52;13.60;99.90
7216;DHT22;3649;48.798;9.798;2023-04-25T06:52:19;13.60;99.90
7216;DHT22;3649;48.798;9.798;2023-04-25T06:54:46;15.00;99.90
7216;DHT22;3649;48.798;9.798;2023-04-25T06:57:13;13.60;99.90
7216;DHT22;3649;48.798;9.798;2023-04-25T06:59:40;13.70;99.90
7216;DHT22;3649;48.798;9.798;2023-04-25T07:02:07;13.80;99.90
7216;DHT22;3649;48.798;9.798;2023-04-25T07:04:33;13.80;99.90
7216;DHT22;3649;48.798;9.798;2023-04-25T07:07:01;14.00;99.90
7216;DHT22;3649;48.798;9.798;2023-04-25T07:09:30;13.90;99.90
7216;DHT22;3649;48.798;9.798;2023-04-25T07:11:56;14.00;99.90
7216;DHT22;3649;48.798;9.798;2023-04-25T07:14:23;14.10;99.90
7216;DHT22;3649;48.798;9.798;2023-04-25T07:16:50;14.20;99.90
7216;DHT22;3649;48.798;9.798;2023-04-25T07:19:17;14.20;99.90
7216;DHT22;3649;48.798;9.798;2023-04-25T07:21:44;14.20;99.90
7216;DHT22;3649;48.798;9.798;2023-04-25T07:24:11;14.20;99.90
7216;DHT22;3649;48.798;9.798;2023-04-25T07:26:38;14.00;99.90
7216;DHT22;3649;48.798;9.798;2023-04-25T07:29:05;14.20;99.90
7216;DHT22;3649;48.798;9.798;2023-04-25T07:31:33;14.10;99.90
7216;DHT22;3649;48.798;9.798;2023-04-25T07:34:00;14.00;99.90
7216;DHT22;3649;48.798;9.798;2023-04-25T07:36:27;14.10;99.90
7216;DHT22;3649;48.798;9.798;2023-04-25T07:38:54;14.10;99.90
7216;DHT22;3649;48.798;9.798;2023-04-25T07:41:21;14.20;99.90
7216;DHT22;3649;48.798;9.798;2023-04-25T07:43:48;14.20;99.90
7216;DHT22;3649;48.798;9.798;2023-04-25T07:46:15;14.20;99.90
7216;DHT22;3649;48.798;9.798;2023-04-25T07:48:42;14.30;99.90
7216;DHT22;3649;48.798;9.798;2023-04-25T07:51:09;14.30;99.90
7216;DHT22;3649;48.798;9.798;2023-04-25T07:53:36;14.30;99.90
7216;DHT22;3649;48.798;9.798;2023-04-25T07:56:04;14.20;99.90
7216;DHT22;3649;48.798;9.798;2023-04-25T07:58:31;14.30;99.90
7216;DHT22;3649;48.798;9.798;2023-04-25T08:00:58;14.20;99.90
7216;DHT22;3649;48.798;9.798;2023-04-25T08:03:25;14.20;99.90
7216;DHT22;3649;48.798;9.798;2023-04-25T08:05:52;14.20;99.90
7216;DHT22;3649;48.798;9.798;2023-04-25T08:08:20;14.10;99.90
7216;DHT22;3649;48.798;9.798;2023-04-25T08:10:47;14.10;99.90
7216;DHT22;3649;48.798;9.798;2023-04-25T08:13:17;14.10;99.90
7216;DHT22;3649;48.798;9.798;2023-04-25T08:15:44;14.10;99.90
7216;DHT22;3649;48.798;9.798;2023-04-25T08:18:11;14.10;99.90
7216;DHT22;3649;48.798;9.798;2023-04-25T08:20:41;14.10;99.90
7216;DHT22;3649;48.798;9.798;2023-04-25T08:23:08;14.10;99.90
7216;DHT22;3649;48.798;9.798;2023-04-25T08:25:35;14.30;99.90
7216;DHT22;3649;48.798;9.798;2023-04-25T08:28:02;14.10;99.90
7216;DHT22;3649;48.798;9.798;2023-04-25T08:30:29;14.10;99.90
7216;DHT22;3649;48.798;9.798;2023-04-25T08:32:56;14.20;99.90
7216;DHT22;3649;48.798;9.798;2023-04-25T08:35:24;14.10;99.90
7216;DHT22;3649;48.798;9.798;2023-04-25T08:37:51;14.10;99.90
7216;DHT22;3649;48.798;9.798;2023-04-25T08:40:19;14.10;99.90
7216;DHT22;3649;48.798;9.798;2023-04-25T08:42:53;14.20;99.90
7216;DHT22;3649;48.798;9.798;2023-04-25T08:45:21;14.20;99.90
7216;DHT22;3649;48.798;9.798;2023-04-25T08:47:51;14.10;99.90
7216;DHT22;3649;48.798;9.798;2023-04-25T08:50:19;14.10;99.90
7216;DHT22;3649;48.798;9.798;2023-04-25T08:52:50;14.10;99.90
7216;DHT22;3649;48.798;9.798;2023-04-25T08:55:21;14.10;99.90
7216;DHT22;3649;48.798;9.798;2023-04-25T08:57:48;14.20;99.90
7216;DHT22;3649;48.798;9.798;2023-04-25T09:00:16;14.10;99.90
7216;DHT22;3649;48.798;9.798;2023-04-25T09:02:45;14.20;99.90
7216;DHT22;3649;48.798;9.798;2023-04-25T09:05:13;14.10;99.90
7216;DHT22;3649;48.798;9.798;2023-04-25T09:07:41;14.20;99.90
7216;DHT22;3649;48.798;9.798;2023-04-25T09:10:08;14.20;99.90
7216;DHT22;3649;48.798;9.798;2023-04-25T09:12:35;14.00;99.90
7216;DHT22;3649;48.798;9.798;2023-04-25T09:15:10;14.00;99.90
7216;DHT22;3649;48.798;9.798;2023-04-25T09:17:41;13.90;99.90
7216;DHT22;3649;48.798;9.798;2023-04-25T09:20:08;14.00;99.90
7216;DHT22;3649;48.798;9.798;2023-04-25T09:22:36;13.90;99.90
7216;DHT22;3649;48.798;9.798;2023-04-25T09:25:09;14.00;99.90
7216;DHT22;3649;48.798;9.798;2023-04-25T09:27:37;14.10;99.90
7216;DHT22;3649;48.798;9.798;2023-04-25T09:30:16;14.10;99.90
7216;DHT22;3649;48.798;9.798;2023-04-25T09:32:44;14.00;99.90
7216;DHT22;3649;48.798;9.798;2023-04-25T09:35:23;14.00;99.90
7216;DHT22;3649;48.798;9.798;2023-04-25T09:37:51;14.10;99.90
7216;DHT22;3649;48.798;9.798;2023-04-25T09:40:18;14.10;99.90
7216;DHT22;3649;48.798;9.798;2023-04-25T09:42:45;13.00;99.90
7216;DHT22;3649;48.798;9.798;2023-04-25T09:45:13;14.20;99.90
7216;DHT22;3649;48.798;9.798;2023-04-25T09:47:42;14.10;99.90
7216;DHT22;3649;48.798;9.798;2023-04-25T09:50:14;14.10;99.90
7216;DHT22;3649;48.798;9.798;2023-04-25T09:52:42;14.00;99.90
7216;DHT22;3649;48.798;9.798;2023-04-25T09:55:09;14.00;99.90
7216;DHT22;3649;48.798;9.798;2023-04-25T09:57:36;13.90;99.90
7216;DHT22;3649;48.798;9.798;2023-04-25T10:00:07;13.80;99.90
7216;DHT22;3649;48.798;9.798;2023-04-25T10:02:39;13.70;99.90
7216;DHT22;3649;48.798;9.798;2023-04-25T10:05:10;13.60;99.90
7216;DHT22;3649;48.798;9.798;2023-04-25T10:07:38;13.60;99.90
7216;DHT22;3649;48.798;9.798;2023-04-25T10:10:07;13.50;99.90
7216;DHT22;3649;48.798;9.798;2023-04-25T10:12:34;13.60;99.90
7216;DHT22;3649;48.798;9.798;2023-04-25T10:15:02;13.70;99.90
7216;DHT22;3649;48.798;9.798;2023-04-25T10:17:29;13.80;99.90
7216;DHT22;3649;48.798;9.798;2023-04-25T10:19:57;13.80;99.90
7216;DHT22;3649;48.798;9.798;2023-04-25T10:22:34;13.80;99.90
7216;DHT22;3649;48.798;9.798;2023-04-25T10:25:02;13.70;99.90
7216;DHT22;3649;48.798;9.798;2023-04-25T10:27:32;13.70;99.90
7216;DHT22;3649;48.798;9.798;2023-04-25T10:30:08;13.60;99.90
7216;DHT22;3649;48.798;9.798;2023-04-25T10:32:45;13.70;99.90
7216;DHT22;3649;48.798;9.798;2023-04-25T10:35:17;13.80;99.90
7216;DHT22;3649;48.798;9.798;2023-04-25T10:38:09;13.80;99.90
7216;DHT22;3649;48.798;9.798;2023-04-25T10:40:36;13.80;99.90
7216;DHT22;3649;48.798;9.798;2023-04-25T10:45:55;13.80;99.90
7216;DHT22;3649;48.798;9.798;2023-04-25T10:48:26;13.70;99.90
7216;DHT22;3649;48.798;9.798;2023-04-25T10:51:19;13.80;99.90
7216;DHT22;3649;48.798;9.798;2023-04-25T10:54:02;13.70;99.90
7216;DHT22;3649;48.798;9.798;2023-04-25T10:56:32;13.50;99.90
7216;DHT22;3649;48.798;9.798;2023-04-25T10:59:10;13.50;99.90
7216;DHT22;3649;48.798;9.798;2023-04-25T11:04:28;13.30;99.90
7216;DHT22;3649;48.798;9.798;2023-04-25T11:10:01;13.20;99.90
7216;DHT22;3649;48.798;9.798;2023-04-25T11:12:30;13.00;99.90
7216;DHT22;3649;48.798;9.798;2023-04-25T11:15:05;12.90;99.90
7216;DHT22;3649;48.798;9.798;2023-04-25T11:17:33;12.80;99.90
7216;DHT22;3649;48.798;9.798;2023-04-25T11:20:00;12.60;99.90
7216;DHT22;3649;48.798;9.798;2023-04-25T11:22:28;12.40;99.90
7216;DHT22;3649;48.798;9.798;2023-04-25T11:24:55;12.40;99.90
7216;DHT22;3649;48.798;9.798;2023-04-25T11:27:22;12.30;99.90
7216;DHT22;3649;48.798;9.798;2023-04-25T11:29:51;12.20;99.90
7216;DHT22;3649;48.798;9.798;2023-04-25T11:32:18;12.20;99.90
7216;DHT22;3649;48.798;9.798;2023-04-25T11:34:47;12.20;99.90
7216;DHT22;3649;48.798;9.798;2023-04-25T11:37:14;12.00;99.90
7216;DHT22;3649;48.798;9.798;2023-04-25T11:39:45;12.00;99.90
7216;DHT22;3649;48.798;9.798;2023-04-25T11:42:15;11.90;99.90
7216;DHT22;3649;48.798;9.798;2023-04-25T11:44:42;11.80;99.90
7216;DHT22;3649;48.798;9.798;2023-04-25T11:47:10;11.80;99.90
7216;DHT22;3649;48.798;9.798;2023-04-25T11:49:36;11.80;99.90
7216;DHT22;3649;48.798;9.798;2023-04-25T11:52:06;11.70;99.90
7216;DHT22;3649;48.798;9.798;2023-04-25T11:54:37;11.70;99.90
7216;DHT22;3649;48.798;9.798;2023-04-25T11:57:04;11.50;99.90
7216;DHT22;3649;48.798;9.798;2023-04-25T11:59:31;11.40;99.90
7216;DHT22;3649;48.798;9.798;2023-04-25T12:01:58;11.60;99.90
7216;DHT22;3649;48.798;9.798;2023-04-25T12:04:25;11.30;99.90
7216;DHT22;3649;48.798;9.798;2023-04-25T12:06:54;11.30;99.90
7216;DHT22;3649;48.798;9.798;2023-04-25T12:09:30;11.60;99.90
7216;DHT22;3649;48.798;9.798;2023-04-25T12:11:59;11.10;99.90
7216;DHT22;3649;48.798;9.798;2023-04-25T12:14:27;11.20;99.90
7216;DHT22;3649;48.798;9.798;2023-04-25T12:16:56;11.70;99.90
7216;DHT22;3649;48.798;9.798;2023-04-25T12:19:24;11.00;99.90
7216;DHT22;3649;48.798;9.798;2023-04-25T12:21:53;11.10;99.90
7216;DHT22;3649;48.798;9.798;2023-04-25T12:24:25;11.00;99.90
7216;DHT22;3649;48.798;9.798;2023-04-25T12:27:03;11.10;99.90
7216;DHT22;3649;48.798;9.798;2023-04-25T12:29:32;11.20;99.90
7216;DHT22;3649;48.798;9.798;2023-04-25T12:32:14;11.20;99.90
7216;DHT22;3649;48.798;9.798;2023-04-25T12:34:42;11.30;99.90
7216;DHT22;3649;48.798;9.798;2023-04-25T12:37:09;11.30;99.90
7216;DHT22;3649;48.798;9.798;2023-04-25T12:39:37;11.10;99.90
7216;DHT22;3649;48.798;9.798;2023-04-25T12:42:04;11.40;99.90
7216;DHT22;3649;48.798;9.798;2023-04-25T12:44:34;11.50;99.90
7216;DHT22;3649;48.798;9.798;2023-04-25T12:47:01;11.50;99.90
7216;DHT22;3649;48.798;9.798;2023-04-25T12:49:30;11.70;99.90
7216;DHT22;3649;48.798;9.798;2023-04-25T12:51:57;11.70;99.90
7216;DHT22;3649;48.798;9.798;2023-04-25T12:54:24;11.90;99.90
7216;DHT22;3649;48.798;9.798;2023-04-25T12:56:52;11.80;99.90
7216;DHT22;3649;48.798;9.798;2023-04-25T12:59:19;11.90;99.90
7216;DHT22;3649;48.798;9.798;2023-04-25T13:01:47;12.00;99.90
7216;DHT22;3649;48.798;9.798;2023-04-25T13:04:14;12.10;99.90
7216;DHT22;3649;48.798;9.798;2023-04-25T13:06:42;12.20;99.90
7216;DHT22;3649;48.798;9.798;2023-04-25T13:09:09;12.20;99.90
7216;DHT22;3649;48.798;9.798;2023-04-25T13:11:36;12.40;99.90
7216;DHT22;3649;48.798;9.798;2023-04-25T13:14:03;12.50;99.90
7216;DHT22;3649;48.798;9.798;2023-04-25T13:16:30;12.60;99.90
7216;DHT22;3649;48.798;9.798;2023-04-25T13:18:57;12.70;99.90
7216;DHT22;3649;48.798;9.798;2023-04-25T13:21:24;12.80;99.90
7216;DHT22;3649;48.798;9.798;2023-04-25T13:23:52;12.80;99.90
7216;DHT22;3649;48.798;9.798;2023-04-25T13:26:20;12.80;99.90
7216;DHT22;3649;48.798;9.798;2023-04-25T13:28:47;12.80;99.90
7216;DHT22;3649;48.798;9.798;2023-04-25T13:31:13;12.80;99.90
7216;DHT22;3649;48.798;9.798;2023-04-25T13:33:41;12.90;99.90
7216;DHT22;3649;48.798;9.798;2023-04-25T13:36:07;12.90;99.90
7216;DHT22;3649;48.798;9.798;2023-04-25T13:38:34;13.00;99.90
7216;DHT22;3649;48.798;9.798;2023-04-25T13:41:01;13.00;99.90
7216;DHT22;3649;48.798;9.798;2023-04-25T13:43:29;13.10;99.90
7216;DHT22;3649;48.798;9.798;2023-04-25T13:45:56;13.00;99.90
7216;DHT22;3649;48.798;9.798;2023-04-25T13:48:24;13.10;99.90
7216;DHT22;3649;48.798;9.798;2023-04-25T13:50:51;13.10;99.90
7216;DHT22;3649;48.798;9.798;2023-04-25T13:53:18;13.10;99.90
7216;DHT22;3649;48.798;9.798;2023-04-25T13:55:45;13.10;99.90
7216;DHT22;3649;48.798;9.798;2023-04-25T13:58:13;13.20;99.90
7216;DHT22;3649;48.798;9.798;2023-04-25T14:00:40;13.20;99.90
7216;DHT22;3649;48.798;9.798;2023-04-25T14:03:09;13.30;99.90
7216;DHT22;3649;48.798;9.798;2023-04-25T14:05:37;13.20;99.90
7216;DHT22;3649;48.798;9.798;2023-04-25T14:08:09;13.30;99.90
7216;DHT22;3649;48.798;9.798;2023-04-25T14:10:36;13.10;99.90
7216;DHT22;3649;48.798;9.798;2023-04-25T14:13:04;13.10;99.90
7216;DHT22;3649;48.798;9.798;2023-04-25T14:15:34;13.10;99.90
7216;DHT22;3649;48.798;9.798;2023-04-25T14:18:01;13.20;99.90
7216;DHT22;3649;48.798;9.798;2023-04-25T14:20:29;13.20;99.90
7216;DHT22;3649;48.798;9.798;2023-04-25T14:22:56;13.20;99.90
7216;DHT22;3649;48.798;9.798;2023-04-25T14:25:25;13.20;99.90
7216;DHT22;3649;48.798;9.798;2023-04-25T14:27:52;13.30;99.90
7216;DHT22;3649;48.798;9.798;2023-04-25T14:30:20;13.30;99.90
7216;DHT22;3649;48.798;9.798;2023-04-25T14:32:50;13.30;99.90
7216;DHT22;3649;48.798;9.798;2023-04-25T14:35:17;13.30;99.90
7216;DHT22;3649;48.798;9.798;2023-04-25T14:37:44;13.30;99.90
7216;DHT22;3649;48.798;9.798;2023-04-25T14:40:12;13.40;99.90
7216;DHT22;3649;48.798;9.798;2023-04-25T14:42:40;13.40;99.90
7216;DHT22;3649;48.798;9.798;2023-04-25T14:45:08;13.30;99.90
7216;DHT22;3649;48.798;9.798;2023-04-25T14:47:36;13.30;99.90
7216;DHT22;3649;48.798;9.798;2023-04-25T14:50:04;13.40;99.90
7216;DHT22;3649;48.798;9.798;2023-04-25T14:52:31;13.50;99.90
7216;DHT22;3649;48.798;9.798;2023-04-25T14:54:58;13.60;99.90
7216;DHT22;3649;48.798;9.798;2023-04-25T14:57:27;13.70;99.90
7216;DHT22;3649;48.798;9.798;2023-04-25T14:59:53;13.70;99.90
7216;DHT22;3649;48.798;9.798;2023-04-25T15:02:21;13.70;99.90
7216;DHT22;3649;48.798;9.798;2023-04-25T15:04:48;13.70;99.90
7216;DHT22;3649;48.798;9.798;2023-04-25T15:07:15;13.60;99.90
7216;DHT22;3649;48.798;9.798;2023-04-25T15:09:44;13.80;99.90
7216;DHT22;3649;48.798;9.798;2023-04-25T15:12:11;13.60;99.90
7216;DHT22;3649;48.798;9.798;2023-04-25T15:14:38;13.50;99.90
7216;DHT22;3649;48.798;9.798;2023-04-25T15:17:05;13.50;99.90
7216;DHT22;3649;48.798;9.798;2023-04-25T15:19:35;13.40;99.90
7216;DHT22;3649;48.798;9.798;2023-04-25T15:22:03;13.50;99.90
7216;DHT22;3649;48.798;9.798;2023-04-25T15:24:30;13.40;99.90
7216;DHT22;3649;48.798;9.798;2023-04-25T15:26:57;13.30;99.90
7216;DHT22;3649;48.798;9.798;2023-04-25T15:29:24;13.10;99.90
7216;DHT22;3649;48.798;9.798;2023-04-25T15:31:52;13.00;99.90
7216;DHT22;3649;48.798;9.798;2023-04-25T15:34:20;12.90;99.90
7216;DHT22;3649;48.798;9.798;2023-04-25T15:36:47;12.80;99.90
7216;DHT22;3649;48.798;9.798;2023-04-25T15:39:14;12.70;99.90
7216;DHT22;3649;48.798;9.798;2023-04-25T15:41:41;12.70;99.90
7216;DHT22;3649;48.798;9.798;2023-04-25T15:44:07;12.60;99.90
7216;DHT22;3649;48.798;9.798;2023-04-25T15:46:37;12.40;99.90
7216;DHT22;3649;48.798;9.798;2023-04-25T15:49:04;12.50;99.90
7216;DHT22;3649;48.798;9.798;2023-04-25T15:51:33;12.40;99.90
7216;DHT22;3649;48.798;9.798;2023-04-25T15:54:01;12.50;99.90
7216;DHT22;3649;48.798;9.798;2023-04-25T15:56:29;12.50;99.90
7216;DHT22;3649;48.798;9.798;2023-04-25T15:58:56;12.50;99.90
7216;DHT22;3649;48.798;9.798;2023-04-25T16:01:23;12.50;99.90
7216;DHT22;3649;48.798;9.798;2023-04-25T16:03:52;12.50;99.90
7216;DHT22;3649;48.798;9.798;2023-04-25T16:06:19;12.50;99.90
7216;DHT22;3649;48.798;9.798;2023-04-25T16:08:46;12.40;99.90
7216;DHT22;3649;48.798;9.798;2023-04-25T16:11:13;12.50;99.90
7216;DHT22;3649;48.798;9.798;2023-04-25T16:13:40;12.50;99.90
7216;DHT22;3649;48.798;9.798;2023-04-25T16:16:07;12.40;99.90